Time;durP1;ratioP1;P1;durP2;ratioP2;P2;SDS_P1;SDS_P2;PMS_P1;PMS_P2;Temp;Humidity;BMP_temperature;BMP_pressure;BME280_temperature;BME280_humidity;BME280_pressure;Samples;Min_cycle;Max_cycle;Signal;HPM_P1;HPM_P2
2022/04/01 00:02:08;;;;;;;2.28;0.70;;;1.70;99.90;;;;;;5073913;28;20252;-76
2022/04/01 00:04:35;;;;;;;0.50;0.40;;;1.70;99.90;;;;;;5074306;28;20198;-79
2022/04/01 00:07:04;;;;;;;0.82;0.82;;;1.70;99.90;;;;;;5072461;28;20210;-78
2022/04/01 00:09:31;;;;;;;9.07;5.75;;;1.70;99.90;;;;;;5073083;28;20590;-77
2022/04/01 00:11:57;;;;;;;0.95;0.95;;;1.80;99.90;;;;;;5073749;28;20190;-78
2022/04/01 00:14:24;;;;;;;0.60;0.50;;;1.70;99.90;;;;;;5073840;28;20213;-75
2022/04/01 00:16:52;;;;;;;0.50;0.50;;;1.80;99.90;;;;;;5073768;28;20215;-78
2022/04/01 00:19:20;;;;;;;3.08;2.25;;;1.80;99.90;;;;;;5073064;28;20237;-77
2022/04/01 00:21:46;;;;;;;1.70;1.60;;;1.70;99.90;;;;;;5073725;28;20191;-78
2022/04/01 00:24:15;;;;;;;1.15;0.70;;;1.70;99.90;;;;;;5072939;28;20183;-77
2022/04/01 00:26:42;;;;;;;0.98;0.98;;;1.80;99.90;;;;;;5073548;28;20220;-78
2022/04/01 00:29:15;;;;;;;0.50;0.50;;;1.80;99.90;;;;;;5073070;28;20199;-78
2022/04/01 00:31:42;;;;;;;0.60;0.60;;;1.80;99.90;;;;;;5073250;28;20209;-77
2022/04/01 00:34:18;;;;;;;0.85;0.70;;;1.80;99.90;;;;;;5073798;28;20211;-77
2022/04/01 00:36:46;;;;;;;3.47;3.35;;;1.80;99.90;;;;;;5073541;28;20548;-78
2022/04/01 00:39:15;;;;;;;0.50;0.45;;;1.90;99.90;;;;;;5072848;28;20537;-77
2022/04/01 00:41:44;;;;;;;0.50;0.40;;;1.80;99.90;;;;;;5073067;28;20186;-77
2022/04/01 00:44:16;;;;;;;5.65;2.45;;;1.80;99.90;;;;;;5073559;28;20192;-76
2022/04/01 00:46:43;;;;;;;0.60;0.50;;;1.70;99.90;;;;;;5073438;28;20210;-77
2022/04/01 00:49:10;;;;;;;0.50;0.40;;;1.60;99.90;;;;;;5072385;28;20194;-80
2022/04/01 00:51:37;;;;;;;2.50;2.40;;;1.70;99.90;;;;;;5073053;28;20198;-77
2022/04/01 00:54:05;;;;;;;0.50;0.50;;;1.70;99.90;;;;;;5073211;28;20259;-77
2022/04/01 00:56:34;;;;;;;2.55;1.73;;;1.70;99.90;;;;;;5073094;28;20226;-77
2022/04/01 00:59:02;;;;;;;0.50;0.50;;;1.70;99.90;;;;;;5071677;28;20207;-78
2022/04/01 01:01:30;;;;;;;4.20;2.70;;;1.70;99.90;;;;;;5073145;28;20194;-77
2022/04/01 01:03:58;;;;;;;1.02;1.02;;;1.70;99.90;;;;;;5073097;28;20186;-77
2022/04/01 01:06:26;;;;;;;0.50;0.45;;;1.70;99.90;;;;;;5072046;28;20601;-78
2022/04/01 01:08:53;;;;;;;1.50;1.02;;;1.70;99.90;;;;;;5071997;28;20384;-79
2022/04/01 01:11:20;;;;;;;0.60;0.60;;;1.70;99.90;;;;;;5072681;28;20191;-74
2022/04/01 01:13:48;;;;;;;0.90;0.70;;;1.60;99.90;;;;;;5072898;28;20245;-77
2022/04/01 01:16:15;;;;;;;1.83;1.73;;;1.70;99.90;;;;;;5073012;28;20212;-77
2022/04/01 01:18:42;;;;;;;1.70;1.45;;;1.60;99.90;;;;;;5072390;28;20543;-77
2022/04/01 01:21:09;;;;;;;0.88;0.88;;;1.60;99.90;;;;;;5072074;28;20197;-77
2022/04/01 01:23:38;;;;;;;0.50;0.40;;;1.50;99.90;;;;;;5072200;28;20182;-78
2022/04/01 01:26:07;;;;;;;0.50;0.43;;;1.50;99.90;;;;;;5072673;28;20268;-77
2022/04/01 01:28:35;;;;;;;1.02;0.98;;;1.50;99.90;;;;;;5072487;28;20201;-78
2022/04/01 01:31:01;;;;;;;0.50;0.50;;;1.50;99.90;;;;;;5071524;28;20222;-77
2022/04/01 01:33:28;;;;;;;1.77;1.67;;;1.50;99.90;;;;;;5072021;28;20217;-76
2022/04/01 01:35:55;;;;;;;0.70;0.70;;;1.40;99.90;;;;;;5072202;28;20217;-78
2022/04/01 01:38:22;;;;;;;0.50;0.50;;;1.30;99.90;;;;;;5072398;28;20607;-77
2022/04/01 01:40:48;;;;;;;0.52;0.47;;;1.40;99.90;;;;;;5071756;28;20199;-77
2022/04/01 01:43:16;;;;;;;0.50;0.50;;;1.40;99.90;;;;;;5072313;28;20571;-79
2022/04/01 01:45:43;;;;;;;0.50;0.50;;;1.30;99.90;;;;;;5072354;28;20206;-75
2022/04/01 01:48:10;;;;;;;0.50;0.50;;;1.30;99.90;;;;;;5072238;28;20190;-78
2022/04/01 01:56:05;;;;;;;0.50;0.40;;;1.30;99.90;;;;;;5071639;28;20220;-77
2022/04/01 01:58:34;;;;;;;0.60;0.60;;;1.30;99.90;;;;;;5072120;28;20235;-76
2022/04/01 02:01:01;;;;;;;0.60;0.60;;;1.30;99.90;;;;;;5070862;28;20320;-79
2022/04/01 02:03:28;;;;;;;0.50;0.45;;;1.30;99.90;;;;;;5071983;28;20194;-77
2022/04/01 02:05:55;;;;;;;0.80;0.80;;;1.30;99.90;;;;;;5071913;28;20210;-78
2022/04/01 02:08:21;;;;;;;0.50;0.50;;;1.20;99.90;;;;;;5070582;28;20678;-78
2022/04/01 02:10:48;;;;;;;0.50;0.50;;;1.20;99.90;;;;;;5070897;28;20202;-77
2022/04/01 02:13:16;;;;;;;0.50;0.50;;;1.30;99.90;;;;;;5072067;28;20213;-77
2022/04/01 02:15:44;;;;;;;0.50;0.50;;;1.30;99.90;;;;;;5071416;28;20256;-77
2022/04/01 02:18:11;;;;;;;0.50;0.40;;;1.30;99.90;;;;;;5071779;28;20520;-77
2022/04/01 02:20:38;;;;;;;0.70;0.68;;;1.20;99.90;;;;;;5070633;28;20688;-78
2022/04/01 02:23:05;;;;;;;1.33;1.15;;;1.10;99.90;;;;;;5071758;28;20186;-77
2022/04/01 02:25:32;;;;;;;0.82;0.82;;;1.10;99.90;;;;;;5071189;28;20222;-78
2022/04/01 02:27:59;;;;;;;0.50;0.43;;;1.20;99.90;;;;;;5071786;28;20618;-77
2022/04/01 02:30:27;;;;;;;0.50;0.40;;;1.20;99.90;;;;;;5070820;28;20197;-77
2022/04/01 02:32:55;;;;;;;2.75;2.25;;;1.20;99.90;;;;;;5071486;28;20190;-74
2022/04/01 02:35:22;;;;;;;2.25;2.05;;;1.20;99.90;;;;;;5071201;28;20598;-76
2022/04/01 02:37:48;;;;;;;0.50;0.50;;;1.20;99.90;;;;;;5071500;28;20190;-79
2022/04/01 02:40:15;;;;;;;1.35;1.15;;;1.10;99.90;;;;;;5070805;28;20209;-77
2022/04/01 02:42:43;;;;;;;1.50;1.25;;;1.20;99.90;;;;;;5071692;28;20186;-77
2022/04/01 02:45:10;;;;;;;0.50;0.50;;;1.10;99.90;;;;;;5071062;28;20190;-77
2022/04/01 02:47:37;;;;;;;0.63;0.63;;;1.00;99.90;;;;;;5074482;28;20196;-77
2022/04/01 02:50:07;;;;;;;0.60;0.50;;;1.00;99.90;;;;;;5076760;28;20194;-78
2022/04/01 02:52:34;;;;;;;0.50;0.47;;;1.10;99.90;;;;;;5078153;28;20190;-79
2022/04/01 02:55:01;;;;;;;2.55;1.58;;;1.10;99.90;;;;;;5077899;28;20221;-76
2022/04/01 02:57:28;;;;;;;1.15;1.15;;;1.10;99.90;;;;;;5078565;28;20768;-77
2022/04/01 02:59:55;;;;;;;0.55;0.45;;;1.10;99.90;;;;;;5077571;28;20205;-76
2022/04/01 03:02:22;;;;;;;0.50;0.47;;;1.10;99.90;;;;;;5077723;28;20197;-72
2022/04/01 03:04:48;;;;;;;1.88;1.75;;;1.00;99.90;;;;;;5077846;28;20277;-77
2022/04/01 03:07:16;;;;;;;0.50;0.50;;;1.00;99.90;;;;;;5076436;28;20218;-73
2022/04/01 03:09:43;;;;;;;0.50;0.40;;;1.00;99.90;;;;;;5077148;28;20293;-77
2022/04/01 03:12:11;;;;;;;1.25;0.80;;;1.00;99.90;;;;;;5078018;28;20190;-77
2022/04/01 03:14:38;;;;;;;0.50;0.43;;;1.00;99.90;;;;;;5077750;28;20411;-77
2022/04/01 03:17:05;;;;;;;0.50;0.40;;;1.10;99.90;;;;;;5077411;28;20570;-76
2022/04/01 03:19:31;;;;;;;0.80;0.80;;;1.10;99.90;;;;;;5077116;28;20186;-77
2022/04/01 03:22:00;;;;;;;0.50;0.50;;;1.20;99.90;;;;;;5077884;28;20551;-76
2022/04/01 03:24:28;;;;;;;2.25;1.15;;;1.20;99.90;;;;;;5078028;28;20235;-76
2022/04/01 03:26:54;;;;;;;0.50;0.50;;;1.20;99.90;;;;;;5077282;28;20222;-76
2022/04/01 03:29:21;;;;;;;0.50;0.47;;;1.20;99.90;;;;;;5077297;28;20197;-76
2022/04/01 03:31:48;;;;;;;0.50;0.50;;;1.10;99.90;;;;;;5077674;28;20200;-76
2022/04/01 03:34:16;;;;;;;0.98;0.93;;;1.10;99.90;;;;;;5077633;28;20214;-75
2022/04/01 03:36:44;;;;;;;0.50;0.40;;;1.10;99.90;;;;;;5077067;28;20216;-76
2022/04/01 03:39:12;;;;;;;0.70;0.50;;;1.10;99.90;;;;;;5076962;28;20229;-75
2022/04/01 03:41:40;;;;;;;0.60;0.60;;;1.00;99.90;;;;;;5077405;28;20190;-75
2022/04/01 03:44:09;;;;;;;0.50;0.40;;;1.00;99.90;;;;;;5077543;28;20582;-75
2022/04/01 03:46:47;;;;;;;0.50;0.40;;;1.00;99.90;;;;;;5077393;28;20221;-76
2022/04/01 03:49:18;;;;;;;0.50;0.40;;;1.00;99.90;;;;;;5076668;28;20174;-75
2022/04/01 03:51:50;;;;;;;2.50;2.30;;;1.00;99.90;;;;;;5077673;28;20201;-75
2022/04/01 03:54:17;;;;;;;0.50;0.40;;;1.00;99.90;;;;;;5076970;28;20252;-75
2022/04/01 03:56:54;;;;;;;0.50;0.40;;;0.90;99.90;;;;;;5077016;28;20225;-76
2022/04/01 03:59:23;;;;;;;0.80;0.80;;;0.90;99.90;;;;;;5073757;28;20174;-75
2022/04/01 04:01:49;;;;;;;0.50;0.40;;;0.90;99.90;;;;;;5074253;28;20193;-75
2022/04/01 04:04:17;;;;;;;0.50;0.40;;;1.00;99.90;;;;;;5074044;28;20979;-76
2022/04/01 04:06:45;;;;;;;0.50;0.40;;;1.00;99.90;;;;;;5072081;28;20303;-74
2022/04/01 04:09:13;;;;;;;0.68;0.68;;;1.00;99.90;;;;;;5073397;28;20243;-75
2022/04/01 04:11:40;;;;;;;0.70;0.70;;;1.10;99.90;;;;;;5074203;28;20217;-75
2022/04/01 04:14:08;;;;;;;0.50;0.40;;;1.00;99.90;;;;;;5073985;28;20210;-75
2022/04/01 04:16:43;;;;;;;0.50;0.40;;;1.00;99.90;;;;;;5073607;28;20216;-75
2022/04/01 04:19:21;;;;;;;0.50;0.50;;;0.90;99.90;;;;;;5073718;28;20194;-75
2022/04/01 04:21:53;;;;;;;1.60;1.30;;;0.90;99.90;;;;;;5073882;28;20183;-77
2022/04/01 04:24:22;;;;;;;1.45;1.35;;;1.00;99.90;;;;;;5073656;28;20177;-75
2022/04/01 04:26:51;;;;;;;0.50;0.40;;;0.90;99.90;;;;;;5073407;28;20215;-76
2022/04/01 04:29:20;;;;;;;0.50;0.40;;;0.90;99.90;;;;;;5073124;28;20267;-74
2022/04/01 04:31:56;;;;;;;0.50;0.40;;;0.90;99.90;;;;;;5073606;28;20197;-75
2022/04/01 04:34:25;;;;;;;0.55;0.50;;;0.90;99.90;;;;;;5073636;28;20209;-75
2022/04/01 04:36:54;;;;;;;0.50;0.50;;;0.90;99.90;;;;;;5073481;28;20221;-75
2022/04/01 04:39:31;;;;;;;0.50;0.50;;;0.90;99.90;;;;;;5072859;28;20195;-76
2022/04/01 04:41:58;;;;;;;0.50;0.50;;;0.90;99.90;;;;;;5073574;28;20204;-75
2022/04/01 04:44:29;;;;;;;0.50;0.40;;;0.90;99.90;;;;;;5073427;28;20196;-75
2022/04/01 04:46:57;;;;;;;0.50;0.40;;;0.90;99.90;;;;;;5073171;28;20208;-75
2022/04/01 04:49:23;;;;;;;0.55;0.50;;;0.90;99.90;;;;;;5072694;28;20193;-75
2022/04/01 04:51:53;;;;;;;0.50;0.40;;;0.90;99.90;;;;;;5073010;28;20201;-75
2022/04/01 04:54:21;;;;;;;1.25;1.15;;;0.80;99.90;;;;;;5073312;28;20710;-75
2022/04/01 04:56:49;;;;;;;0.52;0.52;;;0.90;99.90;;;;;;5072443;28;20224;-74
2022/04/01 04:59:17;;;;;;;0.50;0.40;;;0.90;99.90;;;;;;5072418;28;20190;-75
2022/04/01 05:01:55;;;;;;;2.35;1.65;;;0.80;99.90;;;;;;5072926;28;20225;-75
2022/04/01 05:04:44;;;;;;;1.02;0.60;;;0.80;99.90;;;;;;5072966;28;20170;-75
2022/04/01 05:07:24;;;;;;;0.50;0.50;;;0.80;99.90;;;;;;5064307;28;20240;-75
2022/04/01 05:10:02;;;;;;;0.50;0.50;;;0.80;99.90;;;;;;5071624;28;20624;-75
2022/04/01 05:12:36;;;;;;;0.60;0.50;;;0.80;99.90;;;;;;5071948;28;20201;-75
2022/04/01 05:15:08;;;;;;;1.33;1.33;;;0.80;99.90;;;;;;5072759;28;20216;-74
2022/04/01 05:17:38;;;;;;;0.65;0.65;;;0.70;99.90;;;;;;5072260;28;20218;-75
2022/04/01 05:20:15;;;;;;;0.50;0.50;;;0.70;99.90;;;;;;5071907;28;20201;-74
2022/04/01 05:22:49;;;;;;;1.67;1.15;;;0.70;99.90;;;;;;5072293;28;20174;-74
2022/04/01 05:25:20;;;;;;;1.65;1.55;;;0.80;99.90;;;;;;5072377;28;20214;-74
2022/04/01 05:27:49;;;;;;;0.50;0.40;;;0.80;99.90;;;;;;5072160;28;20182;-73
2022/04/01 05:30:17;;;;;;;2.38;0.60;;;0.80;99.90;;;;;;5071634;28;20602;-73
2022/04/01 05:32:59;;;;;;;0.57;0.50;;;0.80;99.90;;;;;;5071780;28;20217;-76
2022/04/01 05:35:29;;;;;;;0.95;0.95;;;0.90;99.90;;;;;;5072358;28;20210;-74
2022/04/01 05:37:58;;;;;;;0.50;0.50;;;0.80;99.90;;;;;;5072331;28;20190;-74
2022/04/01 05:40:25;;;;;;;0.90;0.90;;;0.80;99.90;;;;;;5071382;28;20647;-74
2022/04/01 05:42:53;;;;;;;0.50;0.50;;;0.90;99.90;;;;;;5071809;28;20563;-74
2022/04/01 05:45:20;;;;;;;1.23;0.93;;;0.80;99.90;;;;;;5071787;28;20198;-76
2022/04/01 05:47:49;;;;;;;0.50;0.50;;;0.80;99.90;;;;;;5071660;28;20213;-76
2022/04/01 05:50:19;;;;;;;0.75;0.75;;;0.80;99.90;;;;;;5070735;28;20198;-74
2022/04/01 05:52:47;;;;;;;0.50;0.50;;;0.90;99.90;;;;;;5071452;28;20194;-73
2022/04/01 05:55:15;;;;;;;0.50;0.50;;;0.80;99.90;;;;;;5069842;28;20236;-73
2022/04/01 05:57:42;;;;;;;0.50;0.50;;;0.90;99.90;;;;;;5062421;28;20549;-74
2022/04/01 06:00:12;;;;;;;0.50;0.40;;;0.90;99.90;;;;;;5051316;28;20210;-74
2022/04/01 06:03:31;;;;;;;0.50;0.50;;;0.90;99.90;;;;;;5051819;28;20204;-73
2022/04/01 06:06:08;;;;;;;0.50;0.40;;;1.00;99.90;;;;;;4989902;28;20215;-74
2022/04/01 06:08:48;;;;;;;0.50;0.40;;;0.90;99.90;;;;;;5058133;28;20234;-75
2022/04/01 06:11:20;;;;;;;0.50;0.40;;;1.00;99.90;;;;;;5070695;28;20189;-75
2022/04/01 06:13:55;;;;;;;0.50;0.40;;;1.00;99.90;;;;;;5065694;28;20521;-73
2022/04/01 06:16:31;;;;;;;0.70;0.70;;;0.90;99.90;;;;;;5062709;28;20234;-74
2022/04/01 06:19:10;;;;;;;0.60;0.50;;;0.80;99.90;;;;;;5070848;28;20204;-72
2022/04/01 06:21:43;;;;;;;1.67;0.65;;;0.80;99.90;;;;;;5071181;28;20199;-71
2022/04/01 06:24:11;;;;;;;1.13;0.98;;;0.80;99.90;;;;;;5070100;28;20204;-74
2022/04/01 06:26:40;;;;;;;0.50;0.40;;;0.70;99.90;;;;;;5070376;28;20214;-74
2022/04/01 06:29:20;;;;;;;0.75;0.70;;;0.70;99.90;;;;;;5068893;28;20206;-74
2022/04/01 06:31:52;;;;;;;0.50;0.50;;;0.80;99.90;;;;;;5071184;28;20183;-74
2022/04/01 06:34:22;;;;;;;1.00;0.70;;;0.80;99.90;;;;;;5067932;28;20205;-74
2022/04/01 06:36:54;;;;;;;0.70;0.70;;;0.80;99.90;;;;;;5062291;28;20224;-75
2022/04/01 06:39:32;;;;;;;0.50;0.50;;;0.80;99.90;;;;;;5070361;28;20605;-72
2022/04/01 06:42:00;;;;;;;2.33;2.15;;;0.90;99.90;;;;;;5071177;28;20201;-73
2022/04/01 06:44:27;;;;;;;0.80;0.80;;;0.80;99.90;;;;;;5071215;28;20567;-71
2022/04/01 06:46:54;;;;;;;0.50;0.50;;;0.90;99.90;;;;;;5071001;28;20255;-75
2022/04/01 06:49:22;;;;;;;2.15;1.23;;;0.90;99.90;;;;;;5070308;28;20200;-73
2022/04/01 06:51:48;;;;;;;3.15;1.33;;;0.90;99.90;;;;;;5070910;28;20199;-74
2022/04/01 06:54:17;;;;;;;0.50;0.40;;;0.80;99.90;;;;;;5069052;28;20250;-74
2022/04/01 06:56:44;;;;;;;5.95;0.80;;;0.90;99.90;;;;;;5063050;28;20231;-74
2022/04/01 06:59:10;;;;;;;1.95;0.73;;;0.90;99.90;;;;;;5054063;28;20204;-75
2022/04/01 07:01:38;;;;;;;0.60;0.57;;;1.00;99.90;;;;;;5051109;28;20564;-74
2022/04/01 07:04:05;;;;;;;0.60;0.60;;;0.90;99.90;;;;;;5050659;28;20281;-73
2022/04/01 07:06:34;;;;;;;5.05;3.53;;;1.00;99.90;;;;;;5058075;28;20249;-75
2022/04/01 07:09:00;;;;;;;0.50;0.40;;;1.00;99.90;;;;;;5068425;28;20198;-76
2022/04/01 07:11:28;;;;;;;0.60;0.60;;;1.00;99.90;;;;;;5068684;28;20687;-75
2022/04/01 07:13:55;;;;;;;1.15;1.05;;;1.00;99.90;;;;;;5068903;28;20205;-73
2022/04/01 07:16:22;;;;;;;2.03;1.85;;;0.80;99.90;;;;;;5068864;28;20229;-75
2022/04/01 07:18:49;;;;;;;1.95;1.50;;;0.90;99.90;;;;;;5068023;28;20210;-73
2022/04/01 07:21:15;;;;;;;0.50;0.40;;;0.90;99.90;;;;;;5068499;28;20238;-75
2022/04/01 07:23:42;;;;;;;0.50;0.40;;;0.90;99.90;;;;;;5055272;28;20664;-76
2022/04/01 07:26:09;;;;;;;1.23;1.20;;;0.90;99.90;;;;;;5049921;28;20217;-76
2022/04/01 07:28:38;;;;;;;0.60;0.50;;;1.00;99.90;;;;;;5050049;28;20787;-76
2022/04/01 07:32:29;;;;;;;0.80;0.77;;;1.00;99.90;;;;;;5049311;28;20845;-76
2022/04/01 07:33:51;;;;;;;1.40;1.27;;;0.90;99.90;;;;;;5051808;28;20701;-77
2022/04/01 07:36:20;;;;;;;0.50;0.50;;;0.80;99.90;;;;;;5054627;28;20215;-76
2022/04/01 07:38:46;;;;;;;0.50;0.40;;;0.90;99.90;;;;;;5054171;28;20196;-74
2022/04/01 07:41:13;;;;;;;1.83;1.75;;;0.90;99.90;;;;;;5054035;28;20705;-76
2022/04/01 07:43:41;;;;;;;1.60;1.10;;;1.00;99.90;;;;;;5054353;28;20194;-75
2022/04/01 07:46:08;;;;;;;0.50;0.40;;;1.10;99.90;;;;;;5054196;28;20207;-75
2022/04/01 07:48:34;;;;;;;0.60;0.60;;;1.10;99.90;;;;;;5054680;28;20568;-76
2022/04/01 07:51:01;;;;;;;0.50;0.40;;;1.10;99.90;;;;;;5053309;28;20195;-77
2022/04/01 07:53:28;;;;;;;1.75;1.05;;;1.10;99.90;;;;;;5054616;28;20602;-73
2022/04/01 07:55:55;;;;;;;0.50;0.50;;;1.00;99.90;;;;;;5053604;28;20218;-77
2022/04/01 07:58:21;;;;;;;0.50;0.40;;;0.90;99.90;;;;;;5053394;28;20676;-76
2022/04/01 08:00:49;;;;;;;1.35;0.95;;;1.10;99.90;;;;;;5053197;28;20214;-76
2022/04/01 08:03:16;;;;;;;0.73;0.73;;;1.10;99.90;;;;;;5053925;28;20199;-76
2022/04/01 08:05:43;;;;;;;0.50;0.50;;;1.00;99.90;;;;;;5053862;28;20583;-76
2022/04/01 08:08:09;;;;;;;0.50;0.40;;;1.00;99.90;;;;;;5052003;28;20198;-76
2022/04/01 08:10:36;;;;;;;0.50;0.50;;;1.00;99.90;;;;;;5052838;28;20201;-75
2022/04/01 08:13:03;;;;;;;1.23;1.15;;;1.10;99.90;;;;;;5053852;28;20194;-76
2022/04/01 08:15:30;;;;;;;0.50;0.45;;;1.00;99.90;;;;;;5053569;28;20220;-76
2022/04/01 08:17:58;;;;;;;0.50;0.50;;;1.00;99.90;;;;;;5053456;28;20194;-76
2022/04/01 08:20:25;;;;;;;0.50;0.40;;;1.10;99.90;;;;;;5052977;28;20537;-76
2022/04/01 08:22:52;;;;;;;1.25;1.08;;;1.00;99.90;;;;;;5053899;28;20199;-77
2022/04/01 08:25:18;;;;;;;0.65;0.63;;;1.00;99.90;;;;;;5053442;28;20201;-76
2022/04/01 08:27:45;;;;;;;3.17;1.35;;;1.00;99.90;;;;;;5053295;28;20691;-74
2022/04/01 08:30:12;;;;;;;1.85;1.67;;;1.00;99.90;;;;;;5052540;28;20193;-76
2022/04/01 08:32:39;;;;;;;0.50;0.40;;;1.10;99.90;;;;;;5052923;28;20202;-76
2022/04/01 08:35:09;;;;;;;0.50;0.40;;;1.10;99.90;;;;;;5053714;28;20215;-76
2022/04/01 08:37:36;;;;;;;0.50;0.47;;;1.10;99.90;;;;;;5052775;28;20218;-75
2022/04/01 08:40:05;;;;;;;0.50;0.50;;;1.10;99.90;;;;;;5052273;28;20199;-77
2022/04/01 08:42:32;;;;;;;0.50;0.40;;;1.20;99.90;;;;;;5052912;28;20219;-76
2022/04/01 08:44:59;;;;;;;0.60;0.60;;;1.20;99.90;;;;;;5052520;28;20248;-76
2022/04/01 08:47:26;;;;;;;0.60;0.50;;;1.20;99.90;;;;;;5052307;28;20318;-77
2022/04/01 08:49:54;;;;;;;0.50;0.50;;;1.20;99.90;;;;;;5052252;28;20195;-76
2022/04/01 08:52:23;;;;;;;0.50;0.50;;;1.20;99.90;;;;;;5052850;28;20235;-76
2022/04/01 08:54:49;;;;;;;0.60;0.60;;;1.20;99.90;;;;;;5052910;28;20680;-76
2022/04/01 08:57:18;;;;;;;0.50;0.50;;;1.30;99.90;;;;;;5053779;28;20250;-76
2022/04/01 08:59:45;;;;;;;4.10;1.40;;;1.30;99.90;;;;;;5051885;28;20669;-76
2022/04/01 09:02:12;;;;;;;0.70;0.70;;;1.30;99.90;;;;;;5052643;28;20198;-76
2022/04/01 09:04:39;;;;;;;1.33;1.25;;;1.20;99.90;;;;;;5052720;28;20202;-77
2022/04/01 09:07:13;;;;;;;0.60;0.60;;;1.30;99.90;;;;;;5051283;28;20301;-77
2022/04/01 09:09:41;;;;;;;0.80;0.80;;;1.20;99.90;;;;;;5051623;28;20189;-76
2022/04/01 09:12:12;;;;;;;0.50;0.50;;;1.20;99.90;;;;;;5052080;28;20671;-76
2022/04/01 09:14:40;;;;;;;0.50;0.40;;;1.20;99.90;;;;;;5052395;28;20195;-76
2022/04/01 09:17:08;;;;;;;0.65;0.65;;;1.30;99.90;;;;;;5052114;28;20704;-75
2022/04/01 09:19:36;;;;;;;0.50;0.45;;;1.30;99.90;;;;;;5051685;28;20221;-76
2022/04/01 09:22:21;;;;;;;0.50;0.50;;;1.30;99.90;;;;;;5052454;28;20217;-79
2022/04/01 09:24:58;;;;;;;0.50;0.43;;;1.40;99.90;;;;;;5052105;28;20197;-77
2022/04/01 09:27:43;;;;;;;0.50;0.50;;;1.50;99.90;;;;;;5052449;28;20218;-77
2022/04/01 09:30:13;;;;;;;0.50;0.40;;;1.50;99.90;;;;;;5051293;28;20732;-76
2022/04/01 09:32:42;;;;;;;0.50;0.50;;;1.60;99.90;;;;;;5051580;28;20251;-76
2022/04/01 09:35:11;;;;;;;0.65;0.65;;;1.50;99.90;;;;;;5052105;28;20198;-78
2022/04/01 09:37:39;;;;;;;1.38;1.30;;;1.50;99.90;;;;;;5051546;28;20332;-76
2022/04/01 09:40:08;;;;;;;0.50;0.50;;;1.50;99.90;;;;;;5051120;28;20195;-77
2022/04/01 09:42:36;;;;;;;0.50;0.40;;;1.40;99.90;;;;;;5052351;28;20391;-76
2022/04/01 09:45:03;;;;;;;0.70;0.70;;;1.40;99.90;;;;;;5051561;28;20203;-76
2022/04/01 09:47:36;;;;;;;0.50;0.40;;;1.50;99.90;;;;;;5052218;28;20207;-74
2022/04/01 09:50:10;;;;;;;0.50;0.40;;;1.60;99.90;;;;;;5051004;28;20592;-76
2022/04/01 09:52:37;;;;;;;0.57;0.57;;;1.60;99.90;;;;;;5051576;28;20268;-76
2022/04/01 09:55:06;;;;;;;0.60;0.50;;;1.50;99.90;;;;;;5051932;28;20285;-77
2022/04/01 09:57:35;;;;;;;0.50;0.40;;;1.60;99.90;;;;;;5050353;28;20227;-76
2022/04/01 10:00:04;;;;;;;0.93;0.93;;;1.50;99.90;;;;;;5051558;28;20206;-76
2022/04/01 10:02:31;;;;;;;0.65;0.65;;;1.50;99.90;;;;;;5051151;28;20657;-76
2022/04/01 10:04:58;;;;;;;0.77;0.70;;;1.50;99.90;;;;;;5051220;28;20194;-76
2022/04/01 10:07:27;;;;;;;0.50;0.50;;;1.50;99.90;;;;;;5050140;28;20695;-76
2022/04/01 10:09:55;;;;;;;0.50;0.45;;;1.60;99.90;;;;;;5050832;28;20199;-75
2022/04/01 10:12:27;;;;;;;1.08;0.88;;;1.60;99.90;;;;;;5050974;28;20226;-76
2022/04/01 10:14:59;;;;;;;1.30;1.20;;;1.70;99.90;;;;;;5051316;28;20175;-76
2022/04/01 10:17:29;;;;;;;5.88;2.03;;;1.70;99.90;;;;;;5051208;28;20253;-75
2022/04/01 10:20:00;;;;;;;0.60;0.60;;;1.70;99.90;;;;;;5050896;28;20244;-76
2022/04/01 10:22:27;;;;;;;0.50;0.40;;;1.60;99.90;;;;;;5051396;28;20227;-73
2022/04/01 10:25:01;;;;;;;0.50;0.50;;;1.60;99.90;;;;;;5051305;28;20285;-77
2022/04/01 10:27:35;;;;;;;0.50;0.40;;;1.70;99.90;;;;;;5051308;28;20562;-78
2022/04/01 10:30:05;;;;;;;5.03;3.08;;;1.80;99.90;;;;;;5050653;28;20227;-78
2022/04/01 10:32:38;;;;;;;1.35;1.15;;;1.70;99.90;;;;;;5051212;28;20208;-76
2022/04/01 10:35:07;;;;;;;1.67;1.40;;;1.60;99.90;;;;;;5051161;28;20198;-78
2022/04/01 10:37:36;;;;;;;1.05;0.95;;;1.60;99.90;;;;;;5050325;28;20628;-75
2022/04/01 10:40:08;;;;;;;1.15;0.88;;;1.60;99.90;;;;;;5050081;28;20679;-75
2022/04/01 10:42:37;;;;;;;1.02;0.80;;;1.70;99.90;;;;;;5050192;28;20215;-75
2022/04/01 10:45:08;;;;;;;3.10;2.47;;;1.70;99.90;;;;;;5050701;28;20193;-76
2022/04/01 10:53:35;;;;;;;0.50;0.50;;;1.80;99.90;;;;;;5050735;28;20271;-75
2022/04/01 10:56:31;;;;;;;0.65;0.65;;;1.70;99.90;;;;;;5050222;28;20762;-76
2022/04/01 10:59:09;;;;;;;0.60;0.60;;;1.70;99.90;;;;;;5050106;28;20183;-76
2022/04/01 11:01:40;;;;;;;0.50;0.40;;;1.80;99.90;;;;;;5051237;28;20197;-76
2022/04/01 11:04:27;;;;;;;0.50;0.40;;;2.00;99.90;;;;;;5050978;28;20183;-76
2022/04/01 11:06:56;;;;;;;0.98;0.88;;;2.10;99.90;;;;;;5048848;28;20231;-75
2022/04/01 11:09:38;;;;;;;1.02;0.88;;;2.10;99.90;;;;;;5052613;28;20277;-71
2022/04/01 11:12:41;;;;;;;0.50;0.40;;;2.00;99.90;;;;;;5054833;28;20204;-76
2022/04/01 11:15:25;;;;;;;0.50;0.50;;;2.00;99.90;;;;;;5055163;28;20177;-76
2022/04/01 11:18:07;;;;;;;0.60;0.60;;;1.90;99.90;;;;;;5054430;28;20251;-76
2022/04/01 11:20:35;;;;;;;0.50;0.40;;;2.00;99.90;;;;;;5054398;28;20227;-75
2022/04/01 11:23:10;;;;;;;0.60;0.50;;;1.90;99.90;;;;;;5054444;28;20288;-76
2022/04/01 11:25:54;;;;;;;0.55;0.47;;;1.80;99.90;;;;;;5054577;28;20211;-75
2022/04/01 11:28:22;;;;;;;1.08;1.00;;;1.80;99.90;;;;;;5054255;28;20202;-72
2022/04/01 11:31:09;;;;;;;0.50;0.50;;;1.80;99.90;;;;;;5054233;28;20221;-76
2022/04/01 11:33:37;;;;;;;0.50;0.40;;;1.80;99.90;;;;;;5054709;28;20226;-76
2022/04/01 11:36:05;;;;;;;0.50;0.50;;;1.80;99.90;;;;;;5054179;28;20213;-76
2022/04/01 11:38:32;;;;;;;2.35;2.15;;;1.80;99.90;;;;;;5054119;28;20224;-76
2022/04/01 11:41:03;;;;;;;0.60;0.60;;;1.90;99.90;;;;;;5053706;28;20200;-78
2022/04/01 11:43:31;;;;;;;0.60;0.60;;;1.80;99.90;;;;;;5054140;28;20209;-76
2022/04/01 11:46:02;;;;;;;0.50;0.50;;;1.70;99.90;;;;;;5054602;28;20366;-76
2022/04/01 11:48:31;;;;;;;1.10;1.02;;;1.60;99.90;;;;;;5054133;28;20182;-75
2022/04/01 11:51:01;;;;;;;0.50;0.50;;;1.70;99.90;;;;;;5054451;28;20584;-76
2022/04/01 11:53:31;;;;;;;2.25;2.15;;;1.70;99.90;;;;;;5054509;28;20184;-73
2022/04/01 11:56:00;;;;;;;0.50;0.50;;;1.70;99.90;;;;;;5053789;28;20226;-76
2022/04/01 11:58:34;;;;;;;0.90;0.90;;;1.70;99.90;;;;;;5053711;28;20202;-75
2022/04/01 12:01:00;;;;;;;0.50;0.40;;;1.60;99.90;;;;;;5053083;28;20206;-76
2022/04/01 12:03:27;;;;;;;1.75;1.25;;;1.60;99.90;;;;;;5053893;28;20553;-75
2022/04/01 12:08:41;;;;;;;0.80;0.80;;;1.60;99.90;;;;;;5053860;28;20215;-75
2022/04/01 12:08:46;;;;;;;0.50;0.40;;;1.60;99.90;;;;;;5053097;28;20264;-75
2022/04/01 12:11:13;;;;;;;0.50;0.50;;;1.60;99.90;;;;;;5053231;28;20207;-76
2022/04/01 12:13:47;;;;;;;0.93;0.93;;;1.70;99.90;;;;;;5053737;28;20235;-75
2022/04/01 12:16:14;;;;;;;1.80;1.70;;;1.70;99.90;;;;;;5054003;28;20279;-75
2022/04/01 12:18:45;;;;;;;1.30;0.95;;;1.80;99.90;;;;;;5053370;28;20204;-77
2022/04/01 12:21:17;;;;;;;0.50;0.40;;;1.80;99.90;;;;;;5052390;28;20256;-76
2022/04/01 12:23:48;;;;;;;0.50;0.50;;;1.80;99.90;;;;;;5053403;28;20254;-77
2022/04/01 12:26:16;;;;;;;0.50;0.50;;;1.80;99.90;;;;;;5053353;28;20218;-76
2022/04/01 12:28:44;;;;;;;2.05;1.95;;;1.70;99.90;;;;;;5053186;28;20202;-77
2022/04/01 12:31:19;;;;;;;0.90;0.90;;;1.60;99.90;;;;;;5052715;28;20209;-76
2022/04/01 12:33:48;;;;;;;0.60;0.60;;;1.60;99.90;;;;;;5053606;28;20249;-76
2022/04/01 12:36:15;;;;;;;1.15;1.05;;;1.60;99.90;;;;;;5052922;28;20611;-76
2022/04/01 12:38:43;;;;;;;0.50;0.40;;;1.40;99.90;;;;;;5053167;28;20660;-76
2022/04/01 12:41:18;;;;;;;0.93;0.93;;;1.40;99.90;;;;;;5052416;28;20576;-76
2022/04/01 12:43:46;;;;;;;0.50;0.40;;;1.50;99.90;;;;;;5053536;28;20544;-76
2022/04/01 12:46:15;;;;;;;2.17;2.08;;;1.40;99.90;;;;;;5053533;28;20309;-76
2022/04/01 12:48:45;;;;;;;0.50;0.47;;;1.40;99.90;;;;;;5053587;28;20645;-76
2022/04/01 12:51:18;;;;;;;1.38;1.00;;;1.60;99.90;;;;;;5052432;28;20248;-76
2022/04/01 12:53:56;;;;;;;0.60;0.60;;;1.50;99.90;;;;;;5053411;28;20179;-76
2022/04/01 12:56:27;;;;;;;1.13;0.60;;;1.50;99.90;;;;;;5052718;28;20233;-76
2022/04/01 12:58:55;;;;;;;1.02;1.02;;;1.50;99.90;;;;;;5052738;28;20200;-75
2022/04/01 13:01:25;;;;;;;0.80;0.60;;;1.70;99.90;;;;;;5052821;28;20195;-73
2022/04/01 13:03:51;;;;;;;0.68;0.68;;;1.50;99.90;;;;;;5052412;28;20669;-76
2022/04/01 13:06:23;;;;;;;0.60;0.60;;;1.70;99.90;;;;;;5050782;28;20217;-72
2022/04/01 13:08:58;;;;;;;2.70;1.65;;;1.80;99.90;;;;;;5052683;28;20198;-73
2022/04/01 13:11:38;;;;;;;0.50;0.45;;;1.90;99.90;;;;;;5052446;28;20619;-74
2022/04/01 13:14:07;;;;;;;1.98;1.17;;;1.90;99.90;;;;;;5052995;28;20199;-77
2022/04/01 13:16:38;;;;;;;1.05;0.88;;;1.70;99.90;;;;;;5052537;28;20219;-79
2022/04/01 13:19:27;;;;;;;0.70;0.57;;;1.70;99.90;;;;;;5052055;28;20268;-77
2022/04/01 13:21:56;;;;;;;0.70;0.70;;;1.80;99.90;;;;;;5052382;28;20225;-77
2022/04/01 13:24:25;;;;;;;1.45;1.25;;;1.80;99.90;;;;;;5052793;28;20641;-77